Time;durP1;ratioP1;P1;durP2;ratioP2;P2;SDS_P1;SDS_P2;PMS_P1;PMS_P2;Temp;Humidity;BMP_temperature;BMP_pressure;BME280_temperature;BME280_humidity;BME280_pressure;Samples;Min_cycle;Max_cycle;Signal;HPM_P1;HPM_P2
2023/07/12 00:01:16;;;;;;;0.73;0.73;;;;;18.80;95788.00;;;;5075250;28;20632;-53
2023/07/12 00:03:43;;;;;;;0.57;0.57;;;;;19.00;95789.00;;;;5074993;28;20198;-53
2023/07/12 00:06:14;;;;;;;0.90;0.90;;;;;19.20;95798.00;;;;5074957;28;20248;-53
2023/07/12 00:08:42;;;;;;;0.60;0.60;;;;;19.20;95790.00;;;;5075291;28;20191;-54
2023/07/12 00:11:16;;;;;;;1.07;1.07;;;;;19.30;95801.00;;;;5074823;28;20245;-54
2023/07/12 00:13:43;;;;;;;2.00;1.17;;;;;19.30;95800.00;;;;5075051;28;20189;-54
2023/07/12 00:16:21;;;;;;;1.33;0.70;;;;;19.20;95812.00;;;;5074534;28;20280;-54
2023/07/12 00:18:48;;;;;;;0.43;0.43;;;;;19.30;95811.00;;;;5074687;28;20186;-54
2023/07/12 00:21:22;;;;;;;2.00;0.70;;;;;19.30;95809.00;;;;5074530;28;20245;-53
2023/07/12 00:23:50;;;;;;;0.50;0.50;;;;;19.50;95812.00;;;;5074874;28;20180;-53
2023/07/12 00:26:28;;;;;;;8.23;1.10;;;;;19.40;95802.00;;;;5074651;28;20216;-56
2023/07/12 00:28:56;;;;;;;0.60;0.60;;;;;19.40;95801.00;;;;5074508;28;20183;-54
2023/07/12 00:31:25;;;;;;;0.60;0.60;;;;;19.30;95801.00;;;;5074465;28;20195;-54
2023/07/12 00:33:53;;;;;;;0.53;0.53;;;;;19.30;95787.00;;;;5074276;28;20566;-54
2023/07/12 00:36:23;;;;;;;0.63;0.63;;;;;19.40;95788.00;;;;5074276;28;20717;-54
2023/07/12 00:38:51;;;;;;;1.10;1.10;;;;;19.40;95783.00;;;;5074308;28;20195;-54
2023/07/12 00:41:24;;;;;;;0.63;0.63;;;;;19.40;95773.00;;;;5074174;28;20215;-54
2023/07/12 00:43:55;;;;;;;2.00;1.17;;;;;19.40;95770.00;;;;5074581;28;20183;-54
2023/07/12 00:46:31;;;;;;;0.80;0.80;;;;;19.50;95761.00;;;;5074123;28;20219;-54
2023/07/12 00:48:59;;;;;;;0.50;0.50;;;;;19.40;95751.00;;;;5074081;28;20183;-54
2023/07/12 00:51:46;;;;;;;0.80;0.80;;;;;19.40;95765.00;;;;5074250;28;20281;-54
2023/07/12 00:54:15;;;;;;;0.83;0.83;;;;;19.50;95773.00;;;;5074297;28;20190;-54
2023/07/12 00:56:43;;;;;;;0.87;0.87;;;;;19.50;95764.00;;;;5072587;28;20654;-54
2023/07/12 00:59:15;;;;;;;0.60;0.60;;;;;19.30;95748.00;;;;5074166;28;20199;-54
2023/07/12 01:01:45;;;;;;;1.10;1.10;;;;;19.20;95720.00;;;;5073806;28;20199;-54
2023/07/12 01:04:17;;;;;;;0.40;0.40;;;;;19.20;95677.00;;;;5074132;28;20616;-55
2023/07/12 01:06:45;;;;;;;0.90;0.90;;;;;19.20;95651.00;;;;5073924;28;20211;-55
2023/07/12 01:09:16;;;;;;;0.50;0.50;;;;;19.20;95671.00;;;;5073743;28;20241;-55
2023/07/12 01:11:45;;;;;;;1.30;1.30;;;;;19.40;95704.00;;;;5074209;28;20180;-55
2023/07/12 01:14:17;;;;;;;1.40;1.40;;;;;19.20;95737.00;;;;5074108;28;20192;-55
2023/07/12 01:16:51;;;;;;;0.67;0.67;;;;;19.10;95728.00;;;;5073487;28;20265;-55
2023/07/12 01:19:18;;;;;;;1.17;1.07;;;;;19.20;95745.00;;;;5073502;28;20183;-54
2023/07/12 01:21:50;;;;;;;0.53;0.53;;;;;19.30;95748.00;;;;5073321;28;20229;-55
2023/07/12 01:24:19;;;;;;;0.60;0.60;;;;;19.10;95718.00;;;;5073474;28;20221;-54
2023/07/12 01:26:48;;;;;;;1.50;1.10;;;;;19.10;95698.00;;;;5071955;28;20642;-55
2023/07/12 01:29:16;;;;;;;0.50;0.50;;;;;19.10;95645.00;;;;5073585;28;20192;-58
2023/07/12 01:31:45;;;;;;;0.80;0.80;;;;;19.20;95601.00;;;;5073293;28;20188;-55
2023/07/12 01:34:16;;;;;;;0.83;0.77;;;;;19.40;95610.00;;;;5073280;28;20281;-55
2023/07/12 01:36:44;;;;;;;1.40;1.17;;;;;19.40;95616.00;;;;5073443;28;20698;-55
2023/07/12 01:39:13;;;;;;;0.60;0.60;;;;;19.30;95605.00;;;;5074030;28;20542;-55
2023/07/12 01:41:40;;;;;;;3.60;1.30;;;;;19.30;95620.00;;;;5073122;28;20294;-55
2023/07/12 01:44:08;;;;;;;0.60;0.60;;;;;19.20;95615.00;;;;5072967;28;20188;-54
2023/07/12 01:46:36;;;;;;;0.97;0.97;;;;;18.90;95628.00;;;;5072814;28;20272;-54
2023/07/12 01:49:03;;;;;;;0.70;0.70;;;;;18.70;95646.00;;;;5073098;28;20195;-54
2023/07/12 01:51:31;;;;;;;0.50;0.50;;;;;18.70;95665.00;;;;5073625;28;20245;-54
2023/07/12 01:53:58;;;;;;;0.80;0.80;;;;;18.70;95666.00;;;;5073323;28;20187;-54
2023/07/12 01:56:27;;;;;;;0.97;0.97;;;;;18.50;95646.00;;;;5072911;28;20219;-55
2023/07/12 01:58:54;;;;;;;0.70;0.70;;;;;18.40;95639.00;;;;5072927;28;20216;-55
2023/07/12 02:01:22;;;;;;;1.03;0.83;;;;;18.60;95633.00;;;;5072870;28;20215;-55
2023/07/12 02:03:49;;;;;;;3.30;1.10;;;;;18.70;95631.00;;;;5072939;28;20195;-54
2023/07/12 02:06:17;;;;;;;2.90;0.90;;;;;18.40;95617.00;;;;5072885;28;20265;-54
2023/07/12 02:08:44;;;;;;;0.80;0.80;;;;;18.40;95615.00;;;;5073141;28;20198;-54
2023/07/12 02:11:11;;;;;;;1.10;1.07;;;;;18.40;95613.00;;;;5073150;28;20191;-55
2023/07/12 02:13:40;;;;;;;0.83;0.83;;;;;18.50;95606.00;;;;5072872;28;20241;-55
2023/07/12 02:16:08;;;;;;;0.90;0.90;;;;;18.50;95610.00;;;;5072684;28;20725;-55
2023/07/12 02:18:35;;;;;;;0.70;0.70;;;;;18.50;95616.00;;;;5073325;28;20240;-55
2023/07/12 02:21:02;;;;;;;0.87;0.87;;;;;18.50;95618.00;;;;5072997;28;20195;-55
2023/07/12 02:23:30;;;;;;;0.90;0.90;;;;;18.70;95612.00;;;;5071468;28;20199;-55
2023/07/12 02:25:57;;;;;;;0.67;0.67;;;;;18.70;95611.00;;;;5072683;28;20219;-54
2023/07/12 02:28:25;;;;;;;0.90;0.90;;;;;18.70;95621.00;;;;5072679;28;20187;-55
2023/07/12 02:30:53;;;;;;;0.93;0.93;;;;;18.70;95621.00;;;;5072725;28;20198;-54
2023/07/12 02:33:21;;;;;;;0.40;0.40;;;;;18.60;95624.00;;;;5072636;28;20241;-54
2023/07/12 02:35:51;;;;;;;0.60;0.60;;;;;18.50;95629.00;;;;5072549;28;20219;-55
2023/07/12 02:38:19;;;;;;;1.07;1.07;;;;;18.60;95622.00;;;;5073688;28;20316;-55
2023/07/12 02:40:47;;;;;;;1.63;1.30;;;;;18.50;95629.00;;;;5072507;28;20199;-54
2023/07/12 02:43:15;;;;;;;0.70;0.70;;;;;18.50;95616.00;;;;5072698;28;20682;-55
2023/07/12 02:45:48;;;;;;;0.83;0.83;;;;;18.60;95620.00;;;;5072776;28;20216;-54
2023/07/12 02:48:17;;;;;;;0.93;0.93;;;;;18.60;95606.00;;;;5072796;28;20646;-54
2023/07/12 02:50:44;;;;;;;0.60;0.60;;;;;18.60;95601.00;;;;5071172;28;20264;-55
2023/07/12 02:53:18;;;;;;;1.13;1.03;;;;;18.70;95605.00;;;;5072495;28;20188;-54
2023/07/12 02:55:49;;;;;;;0.93;0.70;;;;;18.70;95617.00;;;;5072666;28;20238;-54
2023/07/12 02:58:16;;;;;;;1.13;1.10;;;;;18.60;95627.00;;;;5075488;28;20179;-55
2023/07/12 03:00:44;;;;;;;1.60;1.50;;;;;18.50;95622.00;;;;5076399;28;20199;-55
2023/07/12 03:03:11;;;;;;;1.10;1.10;;;;;18.50;95622.00;;;;5076058;28;20223;-54
2023/07/12 03:05:41;;;;;;;0.80;0.80;;;;;18.50;95617.00;;;;5076017;28;20547;-54
2023/07/12 03:08:09;;;;;;;0.83;0.83;;;;;18.50;95622.00;;;;5076035;28;20316;-55
2023/07/12 03:10:37;;;;;;;0.70;0.70;;;;;18.60;95620.00;;;;5074720;28;20202;-55
2023/07/12 03:13:05;;;;;;;0.73;0.73;;;;;18.50;95620.00;;;;5074719;28;20270;-55
2023/07/12 03:15:37;;;;;;;0.50;0.50;;;;;18.50;95609.00;;;;5075859;28;20222;-55
2023/07/12 03:18:04;;;;;;;0.73;0.73;;;;;18.40;95598.00;;;;5076108;28;20599;-55
2023/07/12 03:20:34;;;;;;;1.40;1.30;;;;;18.70;95589.00;;;;5076015;28;20191;-55
2023/07/12 03:23:02;;;;;;;1.20;1.20;;;;;18.60;95599.00;;;;5075577;28;20222;-55
2023/07/12 03:25:30;;;;;;;1.73;1.63;;;;;18.60;95609.00;;;;5076009;28;20215;-54
2023/07/12 03:27:58;;;;;;;0.70;0.70;;;;;18.70;95604.00;;;;5075886;28;20195;-55
2023/07/12 03:30:25;;;;;;;1.27;1.07;;;;;18.70;95611.00;;;;5075557;28;20202;-54
2023/07/12 03:32:54;;;;;;;0.87;0.87;;;;;18.60;95618.00;;;;5075533;28;20187;-54
2023/07/12 03:35:22;;;;;;;2.23;0.80;;;;;18.50;95635.00;;;;5075470;28;20694;-54
2023/07/12 03:37:50;;;;;;;1.20;1.03;;;;;18.30;95635.00;;;;5075457;28;20183;-55
2023/07/12 03:40:18;;;;;;;1.30;1.23;;;;;18.20;95640.00;;;;5075625;28;20257;-54
2023/07/12 03:42:46;;;;;;;1.53;1.30;;;;;18.20;95656.00;;;;5075260;28;20219;-54
2023/07/12 03:45:13;;;;;;;0.50;0.50;;;;;18.30;95660.00;;;;5075260;28;20208;-54
2023/07/12 03:47:41;;;;;;;0.70;0.70;;;;;18.20;95662.00;;;;5075449;28;20256;-54
2023/07/12 03:50:09;;;;;;;0.80;0.80;;;;;18.20;95645.00;;;;5075257;28;20708;-54
2023/07/12 03:52:36;;;;;;;0.67;0.67;;;;;18.20;95639.00;;;;5075410;28;20226;-54
2023/07/12 03:55:04;;;;;;;0.60;0.60;;;;;18.40;95634.00;;;;5075048;28;20203;-55
2023/07/12 03:57:33;;;;;;;0.70;0.70;;;;;18.50;95645.00;;;;5075047;28;20202;-54
2023/07/12 04:00:01;;;;;;;1.80;1.00;;;;;18.30;95656.00;;;;5075789;28;20561;-54
2023/07/12 04:02:28;;;;;;;0.90;0.90;;;;;18.30;95663.00;;;;5075116;28;20585;-54
2023/07/12 04:04:56;;;;;;;1.10;1.10;;;;;18.30;95673.00;;;;5075344;28;20217;-54
2023/07/12 04:07:23;;;;;;;0.97;0.97;;;;;18.40;95683.00;;;;5074414;28;20664;-54
2023/07/12 04:09:51;;;;;;;0.70;0.70;;;;;18.30;95698.00;;;;5074815;28;20195;-54
2023/07/12 04:12:18;;;;;;;1.77;1.67;;;;;18.50;95699.00;;;;5074994;28;20249;-54
2023/07/12 04:14:47;;;;;;;1.33;1.23;;;;;18.40;95699.00;;;;5075195;28;20225;-54
2023/07/12 04:17:15;;;;;;;1.07;0.80;;;;;18.50;95701.00;;;;5074521;28;20225;-54
2023/07/12 04:19:42;;;;;;;0.73;0.73;;;;;18.50;95714.00;;;;5074599;28;20530;-54
2023/07/12 04:22:10;;;;;;;1.40;1.20;;;;;18.70;95717.00;;;;5074802;28;20609;-54
2023/07/12 04:24:37;;;;;;;5.83;1.30;;;;;18.70;95724.00;;;;5075000;28;20249;-54
2023/07/12 04:27:05;;;;;;;1.03;0.93;;;;;18.70;95717.00;;;;5073174;28;20223;-54
2023/07/12 04:29:33;;;;;;;1.60;1.50;;;;;18.90;95721.00;;;;5074437;28;20203;-54
2023/07/12 04:32:01;;;;;;;0.80;0.80;;;;;18.80;95717.00;;;;5074368;28;20208;-54
2023/07/12 04:34:29;;;;;;;1.90;1.63;;;;;18.70;95717.00;;;;5074291;28;20206;-54
2023/07/12 04:36:56;;;;;;;1.40;1.17;;;;;18.80;95722.00;;;;5074264;28;20230;-55
2023/07/12 04:39:23;;;;;;;0.87;0.87;;;;;18.80;95723.00;;;;5074278;28;20661;-55
2023/07/12 04:41:51;;;;;;;0.90;0.90;;;;;18.80;95722.00;;;;5074093;28;20207;-54
2023/07/12 04:44:18;;;;;;;1.40;1.27;;;;;18.90;95717.00;;;;5074155;28;20191;-54
2023/07/12 04:46:45;;;;;;;1.00;1.00;;;;;18.80;95719.00;;;;5073969;28;20215;-54
2023/07/12 04:49:14;;;;;;;0.93;0.93;;;;;18.70;95720.00;;;;5074251;28;20222;-54
2023/07/12 04:51:41;;;;;;;0.73;0.73;;;;;18.70;95723.00;;;;5074204;28;20222;-54
2023/07/12 04:54:09;;;;;;;0.93;0.93;;;;;18.70;95708.00;;;;5073926;28;20217;-54
2023/07/12 04:56:36;;;;;;;1.37;1.37;;;;;18.70;95697.00;;;;5073778;28;20276;-54
2023/07/12 04:59:04;;;;;;;0.50;0.50;;;;;18.80;95706.00;;;;5074094;28;20558;-54
2023/07/12 05:01:31;;;;;;;0.60;0.60;;;;;19.00;95705.00;;;;5073987;28;20200;-55
2023/07/12 05:04:00;;;;;;;1.27;1.17;;;;;19.10;95718.00;;;;5073685;28;20213;-55
2023/07/12 05:06:28;;;;;;;4.03;1.10;;;;;19.20;95719.00;;;;5073581;28;20261;-55
2023/07/12 05:08:56;;;;;;;1.63;1.53;;;;;19.10;95726.00;;;;5073872;28;20194;-55
2023/07/12 05:11:23;;;;;;;0.67;0.67;;;;;19.10;95731.00;;;;5072304;28;20611;-55
2023/07/12 05:13:51;;;;;;;2.03;1.70;;;;;19.20;95727.00;;;;5074093;28;20187;-54
2023/07/12 05:16:18;;;;;;;1.10;1.10;;;;;19.10;95726.00;;;;5073352;28;20223;-54
2023/07/12 05:18:45;;;;;;;0.80;0.80;;;;;19.20;95729.00;;;;5073797;28;20196;-55
2023/07/12 05:21:13;;;;;;;0.87;0.87;;;;;19.30;95727.00;;;;5072780;28;20195;-55
2023/07/12 05:23:42;;;;;;;0.93;0.93;;;;;19.20;95720.00;;;;5073491;28;20617;-55
2023/07/12 05:26:10;;;;;;;10.93;1.27;;;;;19.00;95723.00;;;;5073332;28;20211;-55
2023/07/12 05:28:37;;;;;;;1.50;1.43;;;;;18.90;95739.00;;;;5073285;28;20650;-54
2023/07/12 05:31:08;;;;;;;0.63;0.63;;;;;19.00;95738.00;;;;5073428;28;20662;-55
2023/07/12 05:33:35;;;;;;;1.20;1.20;;;;;19.00;95730.00;;;;5071875;28;20211;-54
2023/07/12 05:36:03;;;;;;;0.80;0.80;;;;;19.20;95727.00;;;;5073379;28;20644;-55
2023/07/12 05:38:30;;;;;;;0.80;0.80;;;;;19.30;95725.00;;;;5073168;28;20203;-55
2023/07/12 05:41:00;;;;;;;1.00;1.00;;;;;19.20;95729.00;;;;5071761;28;20204;-57
2023/07/12 05:43:28;;;;;;;0.70;0.70;;;;;19.30;95727.00;;;;5072969;28;20241;-55
2023/07/12 05:45:56;;;;;;;0.90;0.90;;;;;19.50;95732.00;;;;5073005;28;20235;-55
2023/07/12 05:48:24;;;;;;;0.83;0.83;;;;;19.70;95733.00;;;;5072983;28;20658;-54
2023/07/12 05:50:52;;;;;;;1.00;1.00;;;;;19.70;95724.00;;;;5072863;28;20195;-55
2023/07/12 05:53:20;;;;;;;1.37;1.27;;;;;19.80;95730.00;;;;5071644;28;20218;-55
2023/07/12 05:55:47;;;;;;;8.53;1.93;;;;;19.90;95714.00;;;;5073079;28;20210;-55
2023/07/12 05:58:16;;;;;;;0.60;0.60;;;;;20.00;95709.00;;;;5072913;28;20195;-55
2023/07/12 06:00:43;;;;;;;1.03;1.03;;;;;20.20;95708.00;;;;5072852;28;20222;-54
2023/07/12 06:03:11;;;;;;;1.23;1.17;;;;;20.20;95711.00;;;;5073023;28;20297;-55
2023/07/12 06:05:44;;;;;;;1.27;1.17;;;;;20.20;95706.00;;;;5072777;28;20207;-54
2023/07/12 06:08:11;;;;;;;1.67;1.57;;;;;20.10;95706.00;;;;5072778;28;20183;-54
2023/07/12 06:10:39;;;;;;;3.40;1.60;;;;;20.20;95704.00;;;;5071573;28;20202;-54
2023/07/12 06:13:09;;;;;;;2.73;1.97;;;;;20.20;95725.00;;;;5073007;28;20198;-54
2023/07/12 06:15:39;;;;;;;1.00;1.00;;;;;20.50;95715.00;;;;5073333;28;20321;-54
2023/07/12 06:18:06;;;;;;;1.70;1.60;;;;;20.80;95724.00;;;;5072660;28;20187;-55
2023/07/12 06:20:34;;;;;;;0.97;0.97;;;;;20.90;95722.00;;;;5072581;28;20195;-55
2023/07/12 06:23:02;;;;;;;1.20;1.20;;;;;20.80;95729.00;;;;5072670;28;20261;-52
2023/07/12 06:25:30;;;;;;;1.17;1.17;;;;;20.90;95737.00;;;;5069334;28;20706;-53
2023/07/12 06:27:58;;;;;;;1.17;1.17;;;;;21.00;95745.00;;;;5067530;28;20293;-54
2023/07/12 06:30:25;;;;;;;1.10;1.10;;;;;21.00;95738.00;;;;5069514;28;20195;-55
2023/07/12 06:32:54;;;;;;;0.90;0.90;;;;;21.10;95740.00;;;;5074556;28;20621;-53
2023/07/12 06:35:21;;;;;;;0.53;0.53;;;;;21.10;95739.00;;;;5074899;28;20674;-53
2023/07/12 06:37:49;;;;;;;1.35;1.30;;;;;21.00;95744.00;;;;5072510;28;20203;-53
2023/07/12 06:40:16;;;;;;;0.73;0.73;;;;;20.90;95747.00;;;;5074495;28;20199;-53
2023/07/12 06:42:44;;;;;;;1.13;1.13;;;;;21.00;95733.00;;;;5072933;28;20245;-53
2023/07/12 06:45:11;;;;;;;0.93;0.93;;;;;21.40;95740.00;;;;5072966;28;20223;-53
2023/07/12 06:47:39;;;;;;;0.82;0.82;;;;;21.10;95738.00;;;;5074363;28;20199;-53
2023/07/12 06:50:08;;;;;;;1.13;1.13;;;;;21.10;95736.00;;;;5074371;28;20662;-53
2023/07/12 06:52:36;;;;;;;17.83;1.70;;;;;20.90;95728.00;;;;5073916;28;20195;-53
2023/07/12 06:55:04;;;;;;;1.37;1.27;;;;;21.10;95738.00;;;;5074239;28;20666;-53
2023/07/12 06:57:31;;;;;;;0.63;0.63;;;;;21.10;95737.00;;;;5073721;28;20196;-54
2023/07/12 06:59:58;;;;;;;0.73;0.73;;;;;21.30;95739.00;;;;5074476;28;20195;-54
2023/07/12 07:02:26;;;;;;;0.50;0.50;;;;;21.40;95744.00;;;;5073880;28;20200;-54
2023/07/12 07:04:53;;;;;;;0.88;0.88;;;;;21.50;95744.00;;;;5069900;28;20682;-53
2023/07/12 07:07:22;;;;;;;6.70;1.15;;;;;21.60;95753.00;;;;5073081;28;20222;-54
2023/07/12 07:09:50;;;;;;;0.80;0.80;;;;;21.80;95748.00;;;;5073907;28;20214;-54
2023/07/12 07:12:17;;;;;;;1.20;1.20;;;;;21.80;95757.00;;;;5073914;28;20200;-54
2023/07/12 07:14:44;;;;;;;1.15;1.15;;;;;21.80;95760.00;;;;5073834;28;20218;-54
2023/07/12 07:17:12;;;;;;;12.63;0.80;;;;;22.10;95762.00;;;;5073576;28;20744;-54
2023/07/12 07:19:40;;;;;;;0.88;0.88;;;;;22.00;95770.00;;;;5073713;28;20195;-54
2023/07/12 07:22:08;;;;;;;1.52;1.42;;;;;22.00;95770.00;;;;5074063;28;20195;-54
2023/07/12 07:24:36;;;;;;;0.50;0.50;;;;;22.10;95769.00;;;;5073608;28;20272;-54
2023/07/12 07:27:04;;;;;;;1.17;1.15;;;;;22.30;95776.00;;;;5073439;28;20238;-54
2023/07/12 07:29:32;;;;;;;1.55;1.45;;;;;22.40;95775.00;;;;5073651;28;20277;-54
2023/07/12 07:31:59;;;;;;;0.75;0.75;;;;;22.60;95781.00;;;;5073804;28;20203;-54
2023/07/12 07:34:27;;;;;;;0.93;0.93;;;;;22.80;95778.00;;;;5073096;28;20192;-54
2023/07/12 07:36:54;;;;;;;0.60;0.60;;;;;22.90;95785.00;;;;5073813;28;20217;-54
2023/07/12 07:39:22;;;;;;;0.95;0.95;;;;;22.70;95785.00;;;;5073105;28;20199;-54
2023/07/12 07:41:50;;;;;;;1.52;1.42;;;;;22.60;95780.00;;;;5073832;28;20200;-54
2023/07/12 07:44:18;;;;;;;0.60;0.60;;;;;23.00;95779.00;;;;5072615;28;20215;-54
2023/07/12 07:46:45;;;;;;;0.50;0.50;;;;;22.80;95781.00;;;;5069890;28;20219;-54
2023/07/12 07:49:13;;;;;;;0.60;0.60;;;;;22.70;95785.00;;;;5073122;28;20252;-54
2023/07/12 07:51:40;;;;;;;0.98;0.98;;;;;22.90;95788.00;;;;5073078;28;20191;-54
2023/07/12 07:54:08;;;;;;;0.60;0.60;;;;;22.70;95785.00;;;;5071755;28;20207;-54
2023/07/12 07:56:35;;;;;;;0.70;0.70;;;;;22.90;95796.00;;;;5071871;28;20225;-54
2023/07/12 07:59:06;;;;;;;0.82;0.82;;;;;22.70;95800.00;;;;5073090;28;20195;-54
2023/07/12 08:01:33;;;;;;;0.77;0.77;;;;;23.00;95791.00;;;;5073083;28;20190;-54
2023/07/12 08:04:00;;;;;;;0.80;0.80;;;;;23.20;95799.00;;;;5072784;28;20222;-54
2023/07/12 08:06:28;;;;;;;0.60;0.60;;;;;23.30;95796.00;;;;5072798;28;20226;-54
2023/07/12 08:08:55;;;;;;;0.90;0.90;;;;;23.00;95799.00;;;;5072883;28;20199;-54
2023/07/12 08:11:23;;;;;;;1.08;0.88;;;;;23.00;95793.00;;;;5072782;28;20639;-54
2023/07/12 08:13:50;;;;;;;0.68;0.68;;;;;23.10;95808.00;;;;5072738;28;20203;-54
2023/07/12 08:16:19;;;;;;;0.65;0.65;;;;;23.20;95805.00;;;;5072722;28;20231;-54
2023/07/12 08:18:47;;;;;;;0.60;0.60;;;;;23.30;95804.00;;;;5072587;28;20199;-54
2023/07/12 08:21:14;;;;;;;0.85;0.85;;;;;23.40;95806.00;;;;5072719;28;20202;-54
2023/07/12 08:23:42;;;;;;;0.50;0.50;;;;;23.20;95799.00;;;;5072503;28;20219;-54
2023/07/12 08:26:10;;;;;;;0.50;0.50;;;;;23.40;95803.00;;;;5072424;28;20257;-54
2023/07/12 08:28:37;;;;;;;0.57;0.57;;;;;23.80;95814.00;;;;5072398;28;20246;-54
2023/07/12 08:31:05;;;;;;;1.23;1.23;;;;;23.90;95810.00;;;;5072629;28;20207;-55
2023/07/12 08:33:34;;;;;;;0.60;0.60;;;;;24.20;95817.00;;;;5072380;28;20203;-55
2023/07/12 08:36:01;;;;;;;0.98;0.98;;;;;24.40;95811.00;;;;5071299;28;20215;-54
2023/07/12 08:38:31;;;;;;;1.13;1.13;;;;;24.60;95807.00;;;;5072687;28;20200;-55
2023/07/12 08:40:59;;;;;;;0.70;0.70;;;;;24.50;95802.00;;;;5071927;28;20196;-55
2023/07/12 08:43:31;;;;;;;0.70;0.70;;;;;24.20;95814.00;;;;5072497;28;20227;-54
2023/07/12 08:46:07;;;;;;;0.75;0.75;;;;;24.50;95817.00;;;;5071734;28;20211;-54
2023/07/12 08:48:36;;;;;;;0.88;0.88;;;;;24.80;95811.00;;;;5072119;28;20191;-54
2023/07/12 08:51:12;;;;;;;1.27;1.08;;;;;24.90;95827.00;;;;5072301;28;20200;-54
2023/07/12 08:53:41;;;;;;;0.60;0.60;;;;;24.40;95830.00;;;;5071896;28;20580;-54
2023/07/12 08:56:13;;;;;;;2.65;0.80;;;;;24.30;95837.00;;;;5072088;28;20611;-54
2023/07/12 08:58:45;;;;;;;0.60;0.60;;;;;24.30;95829.00;;;;5071989;28;20188;-54
2023/07/12 09:01:21;;;;;;;0.70;0.70;;;;;24.60;95830.00;;;;5071747;28;20199;-54
2023/07/12 09:03:50;;;;;;;0.50;0.50;;;;;24.60;95830.00;;;;5072418;28;20601;-54
2023/07/12 09:06:18;;;;;;;0.65;0.65;;;;;24.60;95838.00;;;;5071325;28;20215;-53
2023/07/12 09:08:49;;;;;;;0.95;0.95;;;;;24.20;95854.00;;;;5071662;28;20316;-53
2023/07/12 09:11:19;;;;;;;0.50;0.50;;;;;24.10;95856.00;;;;5071707;28;20553;-53
2023/07/12 09:13:47;;;;;;;0.77;0.70;;;;;24.40;95836.00;;;;5072218;28;20206;-54
2023/07/12 09:16:27;;;;;;;2.20;1.98;;;;;24.90;95833.00;;;;5071308;28;20238;-54
2023/07/12 09:18:58;;;;;;;0.75;0.75;;;;;24.70;95828.00;;;;5071592;28;20187;-54
2023/07/12 09:21:28;;;;;;;1.00;1.00;;;;;24.90;95827.00;;;;5071476;28;20559;-54
2023/07/12 09:24:03;;;;;;;1.23;1.23;;;;;25.00;95828.00;;;;5071060;28;20219;-54
2023/07/12 09:26:32;;;;;;;0.80;0.80;;;;;24.90;95827.00;;;;5070000;28;20227;-54
2023/07/12 09:29:07;;;;;;;0.90;0.90;;;;;25.10;95822.00;;;;5070282;28;20206;-54
2023/07/12 09:31:36;;;;;;;0.95;0.95;;;;;24.80;95840.00;;;;5071411;28;20194;-54
2023/07/12 09:34:08;;;;;;;1.13;1.13;;;;;24.80;95837.00;;;;5071538;28;20191;-53
2023/07/12 09:36:39;;;;;;;0.60;0.60;;;;;24.90;95810.00;;;;5071179;28;20218;-53
2023/07/12 09:39:10;;;;;;;0.68;0.68;;;;;24.70;95835.00;;;;5071693;28;20192;-54
2023/07/12 09:41:47;;;;;;;0.77;0.77;;;;;24.90;95827.00;;;;5070897;28;20650;-58
2023/07/12 09:44:16;;;;;;;1.77;1.35;;;;;25.00;95822.00;;;;5071439;28;20286;-54
2023/07/12 09:46:49;;;;;;;0.70;0.70;;;;;24.80;95838.00;;;;5070933;28;20602;-54
2023/07/12 09:49:22;;;;;;;0.95;0.95;;;;;25.10;95827.00;;;;5071333;28;20534;-54
2023/07/12 09:51:58;;;;;;;0.95;0.95;;;;;25.50;95832.00;;;;5071022;28;20198;-54
2023/07/12 09:54:33;;;;;;;0.60;0.60;;;;;25.30;95828.00;;;;5069712;28;20297;-54
2023/07/12 09:57:04;;;;;;;1.45;1.17;;;;;25.50;95824.00;;;;5069923;28;20215;-54
2023/07/12 09:59:39;;;;;;;0.52;0.52;;;;;25.50;95817.00;;;;5071375;28;20203;-54
2023/07/12 10:02:36;;;;;;;0.75;0.75;;;;;25.40;95826.00;;;;5070654;28;20205;-54
2023/07/12 10:05:09;;;;;;;1.00;1.00;;;;;25.40;95815.00;;;;5065548;28;20250;-55
2023/07/12 10:07:53;;;;;;;1.15;0.90;;;;;25.40;95825.00;;;;5069376;28;20196;-55
2023/07/12 10:10:28;;;;;;;0.50;0.50;;;;;25.40;95822.00;;;;5071088;28;20229;-56
2023/07/12 10:13:04;;;;;;;0.90;0.90;;;;;25.70;95814.00;;;;5070241;28;20704;-54
2023/07/12 10:15:37;;;;;;;0.85;0.85;;;;;25.70;95833.00;;;;5070627;28;20219;-55
2023/07/12 10:18:05;;;;;;;0.98;0.82;;;;;25.20;95817.00;;;;5070754;28;20227;-54
2023/07/12 10:20:35;;;;;;;0.80;0.80;;;;;25.40;95820.00;;;;5070595;28;20199;-55
2023/07/12 10:23:03;;;;;;;1.02;1.02;;;;;25.60;95818.00;;;;5070610;28;20199;-54
2023/07/12 10:25:34;;;;;;;0.55;0.55;;;;;25.60;95833.00;;;;5070507;28;20223;-54
2023/07/12 10:28:07;;;;;;;0.70;0.70;;;;;25.30;95814.00;;;;5069568;28;20602;-57
2023/07/12 10:30:35;;;;;;;0.60;0.60;;;;;25.70;95811.00;;;;5070644;28;20182;-54
2023/07/12 10:33:14;;;;;;;2.22;1.20;;;;;25.90;95818.00;;;;5066006;28;20194;-54
2023/07/12 10:35:47;;;;;;;1.17;1.17;;;;;25.30;95814.00;;;;5067485;28;20290;-54
2023/07/12 10:38:17;;;;;;;0.60;0.60;;;;;25.60;95805.00;;;;5070630;28;20256;-55
2023/07/12 10:40:50;;;;;;;0.93;0.93;;;;;25.50;95814.00;;;;5070598;28;20192;-54
2023/07/12 10:43:23;;;;;;;0.90;0.90;;;;;26.00;95806.00;;;;5070600;28;20192;-54
2023/07/12 10:45:52;;;;;;;0.70;0.70;;;;;26.20;95812.00;;;;5070481;28;20302;-55
2023/07/12 10:48:25;;;;;;;0.80;0.80;;;;;26.00;95827.00;;;;5070417;28;20666;-55
2023/07/12 10:50:56;;;;;;;1.45;1.25;;;;;25.70;95822.00;;;;5066229;28;20590;-55
2023/07/12 10:53:27;;;;;;;1.35;1.25;;;;;25.40;95811.00;;;;5070384;28;20192;-55
2023/07/12 10:56:13;;;;;;;1.35;1.25;;;;;25.40;95823.00;;;;5070085;28;20208;-55
2023/07/12 10:58:48;;;;;;;0.82;0.82;;;;;25.30;95812.00;;;;5070373;28;20191;-55
2023/07/12 11:01:40;;;;;;;0.70;0.70;;;;;25.30;95803.00;;;;5070341;28;20194;-55
2023/07/12 11:04:09;;;;;;;0.85;0.80;;;;;25.60;95779.00;;;;5070348;28;20230;-54
2023/07/12 11:06:54;;;;;;;1.02;1.02;;;;;26.10;95776.00;;;;5070183;28;20226;-55
2023/07/12 11:09:22;;;;;;;1.10;1.10;;;;;26.30;95793.00;;;;5069676;28;20238;-54
2023/07/12 11:11:57;;;;;;;1.35;1.20;;;;;26.30;95776.00;;;;5070116;28;20200;-54
2023/07/12 11:14:48;;;;;;;1.85;1.30;;;;;26.70;95765.00;;;;5070352;28;20260;-54
2023/07/12 11:17:27;;;;;;;1.00;1.00;;;;;26.90;95783.00;;;;5070416;28;20227;-54
2023/07/12 11:20:07;;;;;;;0.82;0.73;;;;;26.70;95790.00;;;;5073799;28;20211;-55
2023/07/12 11:23:22;;;;;;;0.85;0.85;;;;;26.70;95765.00;;;;5073835;28;20270;-54
2023/07/12 11:25:58;;;;;;;0.88;0.88;;;;;27.00;95777.00;;;;5073805;28;20299;-54
2023/07/12 11:28:42;;;;;;;0.90;0.90;;;;;26.50;95778.00;;;;5073267;28;20191;-54
2023/07/12 11:31:33;;;;;;;0.98;0.98;;;;;26.50;95807.00;;;;5071194;28;20231;-54
2023/07/12 11:34:14;;;;;;;1.13;1.13;;;;;26.30;95801.00;;;;5063406;28;20268;-54
2023/07/12 11:36:43;;;;;;;1.40;1.23;;;;;26.10;95773.00;;;;5073650;28;20223;-55
2023/07/12 11:39:15;;;;;;;0.95;0.95;;;;;27.00;95769.00;;;;5073505;28;20222;-55
2023/07/12 11:41:53;;;;;;;0.60;0.60;;;;;27.30;95791.00;;;;5073464;28;20188;-57
2023/07/12 11:44:21;;;;;;;2.75;1.65;;;;;27.00;95800.00;;;;5070209;28;20203;-56
2023/07/12 11:46:50;;;;;;;1.00;1.00;;;;;27.00;95773.00;;;;5073564;28;20581;-56
2023/07/12 11:49:20;;;;;;;1.30;1.23;;;;;26.90;95798.00;;;;5073389;28;20268;-55
2023/07/12 11:51:50;;;;;;;1.23;1.17;;;;;27.00;95758.00;;;;5071996;28;20191;-55
2023/07/12 11:54:20;;;;;;;0.70;0.70;;;;;27.40;95784.00;;;;5072090;28;20187;-54
2023/07/12 11:56:50;;;;;;;0.77;0.77;;;;;27.20;95792.00;;;;5073128;28;20321;-55
2023/07/12 11:59:19;;;;;;;1.40;1.30;;;;;26.70;95808.00;;;;5073348;28;20195;-54
2023/07/12 12:01:49;;;;;;;1.00;1.00;;;;;26.50;95803.00;;;;5072478;28;20554;-54
2023/07/12 12:04:21;;;;;;;15.82;1.00;;;;;26.50;95802.00;;;;5072028;28;20203;-54
2023/07/12 12:06:51;;;;;;;0.77;0.77;;;;;26.50;95797.00;;;;5072975;28;20665;-55
2023/07/12 12:09:21;;;;;;;1.25;1.25;;;;;26.50;95807.00;;;;5073280;28;20274;-54
2023/07/12 12:11:50;;;;;;;1.02;1.02;;;;;26.50;95820.00;;;;5072777;28;20582;-54
2023/07/12 12:14:22;;;;;;;0.65;0.65;;;;;26.20;95786.00;;;;5071486;28;20278;-54
2023/07/12 12:16:53;;;;;;;1.13;1.13;;;;;26.70;95775.00;;;;5072300;28;20231;-54
2023/07/12 12:19:25;;;;;;;0.93;0.93;;;;;27.30;95760.00;;;;5073429;28;20554;-54
2023/07/12 12:22:00;;;;;;;0.75;0.75;;;;;27.70;95792.00;;;;5072753;28;20198;-54
2023/07/12 12:24:28;;;;;;;1.75;1.25;;;;;27.10;95765.00;;;;5072652;28;20199;-55
2023/07/12 12:26:57;;;;;;;1.02;1.02;;;;;26.90;95758.00;;;;5072597;28;20215;-54
2023/07/12 12:29:26;;;;;;;2.53;1.40;;;;;26.60;95771.00;;;;5072235;28;20199;-55
2023/07/12 12:31:56;;;;;;;0.63;0.63;;;;;27.10;95764.00;;;;5072644;28;20200;-54